Time;durP1;ratioP1;P1;durP2;ratioP2;P2;SDS_P1;SDS_P2;PMS_P1;PMS_P2;Temp;Humidity;BMP_temperature;BMP_pressure;BME280_temperature;BME280_humidity;BME280_pressure;Samples;Min_cycle;Max_cycle;Signal;HPM_P1;HPM_P2
2023/06/30 00:01:27;;;;;;;24.23;18.03;;;20.30;95.80;;;;;;5115405;27;20480;-62
2023/06/30 00:03:53;;;;;;;27.10;17.87;;;20.20;95.90;;;;;;5119942;27;20748;-61
2023/06/30 00:06:20;;;;;;;29.70;20.00;;;20.20;95.70;;;;;;5083073;27;20839;-62
2023/06/30 00:08:49;;;;;;;27.07;18.97;;;20.10;96.00;;;;;;5122993;27;20712;-62
2023/06/30 00:11:16;;;;;;;38.63;20.83;;;20.10;96.00;;;;;;5120319;27;20938;-62
2023/06/30 00:13:43;;;;;;;28.37;20.00;;;20.00;96.50;;;;;;5125006;27;20709;-61
2023/06/30 00:16:10;;;;;;;31.23;20.40;;;19.90;96.60;;;;;;5122740;27;20979;-61
2023/06/30 00:18:37;;;;;;;35.57;21.47;;;20.00;96.40;;;;;;5123459;27;20744;-62
2023/06/30 00:21:04;;;;;;;24.40;17.40;;;20.00;96.40;;;;;;5122288;27;20827;-62
2023/06/30 00:23:31;;;;;;;27.83;17.77;;;20.00;96.20;;;;;;5125494;27;20480;-61
2023/06/30 00:26:01;;;;;;;31.50;21.93;;;20.00;96.20;;;;;;5125552;27;20564;-61
2023/06/30 00:28:28;;;;;;;33.60;20.00;;;19.90;96.50;;;;;;5127069;27;20785;-61
2023/06/30 00:30:54;;;;;;;34.07;21.80;;;19.90;96.80;;;;;;5125674;27;20863;-61
2023/06/30 00:33:21;;;;;;;31.93;21.20;;;19.80;97.00;;;;;;5122212;27;20486;-61
2023/06/30 00:35:48;;;;;;;30.13;19.57;;;19.70;97.10;;;;;;5128039;27;20483;-60
2023/06/30 00:38:15;;;;;;;28.33;18.93;;;19.80;97.00;;;;;;5125754;27;20584;-61
2023/06/30 00:40:42;;;;;;;31.37;20.23;;;19.70;97.20;;;;;;5125185;27;20479;-62
2023/06/30 00:43:10;;;;;;;30.10;19.63;;;19.60;97.50;;;;;;5122459;27;20484;-61
2023/06/30 00:45:37;;;;;;;31.40;19.57;;;19.60;97.60;;;;;;5123830;27;20611;-61
2023/06/30 00:48:04;;;;;;;28.67;18.50;;;19.70;97.90;;;;;;5118811;27;20479;-61
2023/06/30 00:50:31;;;;;;;29.13;19.37;;;19.80;97.40;;;;;;5122304;27;20867;-62
2023/06/30 00:52:58;;;;;;;27.50;20.30;;;19.90;97.00;;;;;;5126068;27;20734;-61
2023/06/30 00:55:26;;;;;;;31.30;18.77;;;20.00;96.80;;;;;;5125629;27;20467;-61
2023/06/30 00:57:53;;;;;;;33.00;21.00;;;20.10;96.70;;;;;;5123193;27;20467;-62
2023/06/30 01:00:23;;;;;;;29.30;20.47;;;20.20;96.60;;;;;;5119056;27;20482;-61
2023/06/30 01:03:01;;;;;;;28.87;21.30;;;20.10;96.70;;;;;;5118735;27;20490;-62
2023/06/30 01:05:35;;;;;;;30.20;18.87;;;20.20;96.60;;;;;;5096051;27;20474;-61
2023/06/30 01:08:09;;;;;;;30.63;20.03;;;20.20;96.80;;;;;;5108358;27;20475;-61
2023/06/30 01:10:38;;;;;;;27.33;19.10;;;20.10;96.70;;;;;;5120760;27;20887;-61
2023/06/30 01:13:07;;;;;;;35.90;19.17;;;19.90;97.30;;;;;;5109876;27;20474;-61
2023/06/30 01:15:36;;;;;;;31.80;20.97;;;19.90;97.60;;;;;;5114729;27;20642;-61
2023/06/30 01:18:04;;;;;;;29.50;18.73;;;20.00;97.70;;;;;;5123229;27;20472;-61
2023/06/30 01:20:33;;;;;;;32.93;18.67;;;20.10;96.90;;;;;;5124992;27;20470;-61
2023/06/30 01:23:07;;;;;;;30.50;19.93;;;20.20;96.50;;;;;;5118285;27;20785;-61
2023/06/30 01:25:34;;;;;;;28.93;18.23;;;20.30;96.30;;;;;;5109714;27;20533;-61
2023/06/30 01:28:03;;;;;;;33.17;20.70;;;20.30;96.30;;;;;;5125278;27;20480;-61
2023/06/30 01:30:30;;;;;;;34.27;21.90;;;20.30;96.50;;;;;;5131844;27;20456;-61
2023/06/30 01:32:59;;;;;;;39.57;21.33;;;20.20;97.00;;;;;;5129044;27;20475;-62
2023/06/30 01:35:26;;;;;;;27.33;17.17;;;20.10;97.30;;;;;;5117455;27;20474;-61
2023/06/30 01:37:54;;;;;;;38.67;21.30;;;20.10;97.20;;;;;;5112606;27;20475;-62
2023/06/30 01:40:22;;;;;;;37.90;20.20;;;20.10;97.20;;;;;;5113851;27;20482;-61
2023/06/30 01:42:51;;;;;;;41.67;21.50;;;20.10;97.00;;;;;;5115886;27;20685;-61
2023/06/30 01:45:19;;;;;;;26.63;18.57;;;20.00;97.20;;;;;;5114302;27;20483;-61
2023/06/30 01:47:46;;;;;;;44.50;22.10;;;21.00;97.80;;;;;;5115253;27;20482;-61
2023/06/30 01:50:16;;;;;;;28.33;19.60;;;20.10;97.00;;;;;;5114209;27;20472;-62
2023/06/30 01:52:43;;;;;;;31.67;20.30;;;20.10;97.20;;;;;;5114083;27;20506;-61
2023/06/30 01:55:10;;;;;;;44.60;20.70;;;20.20;97.20;;;;;;5113257;27;20486;-61
2023/06/30 01:57:37;;;;;;;32.87;20.37;;;20.20;97.00;;;;;;5111146;27;20784;-61
2023/06/30 02:00:05;;;;;;;30.97;20.50;;;20.20;96.80;;;;;;5111822;27;20479;-60
2023/06/30 02:02:33;;;;;;;31.60;19.00;;;20.10;96.80;;;;;;5115468;27;20540;-61
2023/06/30 02:04:59;;;;;;;27.77;19.73;;;20.20;96.80;;;;;;5114872;27;20487;-61
2023/06/30 02:07:28;;;;;;;33.40;20.77;;;20.10;97.30;;;;;;5117826;27;20481;-61
2023/06/30 02:09:54;;;;;;;32.67;20.67;;;19.90;97.30;;;;;;5115958;27;20878;-61
2023/06/30 02:12:21;;;;;;;34.20;21.17;;;19.90;97.10;;;;;;5116188;27;21058;-61
2023/06/30 02:14:48;;;;;;;47.47;24.33;;;19.90;97.40;;;;;;5115135;27;20479;-61
2023/06/30 02:17:15;;;;;;;31.17;19.13;;;19.60;97.80;;;;;;5115116;27;20477;-60
2023/06/30 02:19:42;;;;;;;34.30;20.03;;;19.50;98.20;;;;;;5114331;27;20491;-61
2023/06/30 02:22:09;;;;;;;37.63;20.70;;;19.50;98.10;;;;;;5115165;27;21305;-61
2023/06/30 02:24:37;;;;;;;40.77;19.57;;;19.30;99.00;;;;;;5098842;27;21241;-61
2023/06/30 02:27:04;;;;;;;29.90;19.30;;;19.40;98.90;;;;;;5108756;27;20755;-61
2023/06/30 02:29:31;;;;;;;36.23;21.13;;;19.40;98.80;;;;;;5088272;28;20569;-61
2023/06/30 02:31:58;;;;;;;32.83;19.33;;;19.50;98.60;;;;;;5115998;27;21014;-61
2023/06/30 02:34:24;;;;;;;36.37;22.20;;;19.40;98.60;;;;;;5115220;27;21903;-61
2023/06/30 02:36:51;;;;;;;40.43;22.10;;;19.50;98.60;;;;;;5116737;27;20483;-61
2023/06/30 02:39:18;;;;;;;36.73;19.57;;;19.50;98.20;;;;;;5116695;27;20478;-61
2023/06/30 02:41:46;;;;;;;32.00;20.50;;;19.50;97.90;;;;;;5115011;27;21657;-61
2023/06/30 02:44:13;;;;;;;38.67;21.97;;;19.50;97.70;;;;;;5115697;27;20472;-60
2023/06/30 02:46:40;;;;;;;36.30;19.23;;;19.50;97.50;;;;;;5114045;27;20514;-61
2023/06/30 02:49:07;;;;;;;33.03;19.33;;;19.60;97.30;;;;;;5114051;27;20479;-61
2023/06/30 02:51:33;;;;;;;43.43;22.13;;;19.60;97.20;;;;;;5114655;27;20470;-61
2023/06/30 02:54:00;;;;;;;36.83;20.70;;;19.60;97.50;;;;;;5114227;27;20475;-61
2023/06/30 02:56:27;;;;;;;45.60;22.10;;;19.60;97.20;;;;;;5111443;27;20502;-62
2023/06/30 02:58:55;;;;;;;44.33;22.03;;;19.50;97.40;;;;;;5112316;28;20480;-61
2023/06/30 03:01:22;;;;;;;42.20;21.50;;;19.50;97.20;;;;;;5113580;27;20464;-61
2023/06/30 03:03:49;;;;;;;59.40;25.83;;;19.50;97.10;;;;;;5118101;27;20780;-61
2023/06/30 03:06:16;;;;;;;44.43;22.43;;;19.50;97.40;;;;;;5120788;27;20471;-61
2023/06/30 03:08:43;;;;;;;39.50;19.17;;;19.50;96.90;;;;;;5118454;27;20569;-61
2023/06/30 03:11:11;;;;;;;38.43;22.17;;;19.50;97.40;;;;;;5118070;27;20826;-61
2023/06/30 03:13:38;;;;;;;42.10;22.07;;;19.50;97.50;;;;;;5117856;27;20849;-61
2023/06/30 03:16:08;;;;;;;34.40;20.43;;;19.50;97.50;;;;;;5114953;27;20479;-60
2023/06/30 03:18:34;;;;;;;37.37;19.63;;;19.40;97.60;;;;;;5116467;27;20475;-60
2023/06/30 03:21:01;;;;;;;56.10;26.57;;;19.20;97.70;;;;;;5116796;27;20480;-60
2023/06/30 03:23:28;;;;;;;50.70;23.27;;;19.10;98.20;;;;;;5118957;27;21025;-61
2023/06/30 03:25:55;;;;;;;61.30;27.40;;;18.90;99.00;;;;;;5118702;27;20483;-61
2023/06/30 03:28:22;;;;;;;50.03;24.10;;;18.70;99.30;;;;;;5118785;27;20479;-60
2023/06/30 03:30:48;;;;;;;56.73;24.13;;;18.60;99.60;;;;;;5117095;27;20833;-61
2023/06/30 03:33:17;;;;;;;43.60;21.53;;;18.50;99.60;;;;;;5118046;27;20486;-61
2023/06/30 03:35:43;;;;;;;33.70;19.63;;;18.70;99.10;;;;;;5117065;27;20578;-62
2023/06/30 03:38:10;;;;;;;41.53;21.80;;;18.70;99.20;;;;;;5116749;27;21151;-61
2023/06/30 03:40:37;;;;;;;35.57;20.00;;;18.80;99.30;;;;;;5117697;27;20486;-61
2023/06/30 03:43:04;;;;;;;44.30;21.80;;;18.80;98.90;;;;;;5111154;27;20896;-61
2023/06/30 03:45:31;;;;;;;46.40;23.27;;;18.80;98.80;;;;;;5099284;27;20498;-61
2023/06/30 03:47:58;;;;;;;50.20;23.93;;;18.80;98.90;;;;;;5113149;27;20474;-61
2023/06/30 03:50:26;;;;;;;45.10;22.70;;;18.80;98.60;;;;;;5116564;27;20824;-60
2023/06/30 03:52:53;;;;;;;69.43;28.90;;;18.90;98.50;;;;;;5112937;27;20480;-61
2023/06/30 03:55:19;;;;;;;39.80;20.60;;;19.00;98.30;;;;;;5118571;27;20487;-61
2023/06/30 03:57:46;;;;;;;38.73;21.30;;;19.00;98.40;;;;;;5116591;27;20474;-62
2023/06/30 04:00:14;;;;;;;43.53;21.77;;;19.10;98.60;;;;;;5086716;27;20989;-61
2023/06/30 04:02:41;;;;;;;38.47;21.50;;;19.00;98.50;;;;;;5114018;27;20475;-61
2023/06/30 04:05:08;;;;;;;37.33;20.50;;;19.00;98.30;;;;;;5117332;27;21222;-61
2023/06/30 04:07:37;;;;;;;32.20;19.20;;;19.10;98.20;;;;;;5099223;27;20479;-62
2023/06/30 04:10:04;;;;;;;51.07;24.20;;;19.10;98.50;;;;;;5096605;27;20881;-61
2023/06/30 04:12:31;;;;;;;40.07;21.37;;;19.10;98.40;;;;;;5111853;27;20826;-61
2023/06/30 04:14:58;;;;;;;50.43;23.17;;;19.10;98.50;;;;;;5114261;27;20707;-61
2023/06/30 04:17:25;;;;;;;33.87;18.50;;;19.10;98.50;;;;;;5115531;27;20486;-61
2023/06/30 04:19:51;;;;;;;64.07;26.47;;;19.10;98.40;;;;;;5115772;27;20482;-61
2023/06/30 04:22:18;;;;;;;43.70;22.47;;;19.10;98.50;;;;;;5118139;27;20485;-60
2023/06/30 04:24:47;;;;;;;36.00;20.67;;;19.10;98.80;;;;;;5116130;27;20926;-60
2023/06/30 04:27:13;;;;;;;36.07;20.17;;;19.10;98.70;;;;;;5117555;27;20510;-61
2023/06/30 04:29:40;;;;;;;36.70;22.17;;;19.10;99.00;;;;;;5116790;27;20476;-61
2023/06/30 04:32:07;;;;;;;45.30;22.40;;;19.10;99.20;;;;;;5115497;27;20480;-61
2023/06/30 04:34:34;;;;;;;41.27;22.60;;;19.20;99.40;;;;;;5116249;27;20480;-61
2023/06/30 04:37:01;;;;;;;59.43;27.33;;;19.30;99.30;;;;;;5116202;27;20559;-60
2023/06/30 04:39:28;;;;;;;50.00;23.60;;;19.20;99.10;;;;;;5118644;27;20498;-60
2023/06/30 04:41:56;;;;;;;57.00;23.93;;;19.20;99.20;;;;;;5120161;27;20629;-60
2023/06/30 04:44:24;;;;;;;42.97;21.63;;;19.20;99.30;;;;;;5099476;27;20556;-61
2023/06/30 04:46:51;;;;;;;56.80;23.37;;;19.20;99.30;;;;;;5111631;27;20480;-61
2023/06/30 04:49:17;;;;;;;43.83;20.67;;;19.20;99.40;;;;;;5116076;27;20475;-61
2023/06/30 04:51:44;;;;;;;38.70;21.27;;;19.30;99.40;;;;;;5113548;27;20473;-60
2023/06/30 04:54:11;;;;;;;49.60;23.00;;;19.30;99.50;;;;;;5114332;27;20581;-61
2023/06/30 04:56:38;;;;;;;37.03;19.43;;;19.40;99.90;;;;;;5117836;27;20926;-60
2023/06/30 04:59:06;;;;;;;39.80;22.23;;;19.40;99.90;;;;;;5116623;27;20878;-61
2023/06/30 05:01:33;;;;;;;52.93;25.57;;;20.30;99.90;;;;;;5114496;27;20478;-61
2023/06/30 05:04:00;;;;;;;73.63;27.00;;;19.30;99.90;;;;;;5115464;27;20719;-61
2023/06/30 05:06:27;;;;;;;48.87;23.37;;;19.30;99.90;;;;;;5114962;27;20562;-61
2023/06/30 05:08:54;;;;;;;65.83;27.80;;;19.30;99.90;;;;;;5113542;27;20479;-61
2023/06/30 05:11:20;;;;;;;49.17;24.03;;;19.30;99.90;;;;;;5115294;27;20472;-60
2023/06/30 05:13:47;;;;;;;48.03;25.50;;;19.30;99.90;;;;;;5116969;27;21117;-61
2023/06/30 05:16:15;;;;;;;45.77;23.17;;;19.40;99.90;;;;;;5115182;27;20483;-60
2023/06/30 05:18:42;;;;;;;57.17;25.27;;;19.40;99.90;;;;;;5116595;27;20470;-61
2023/06/30 05:21:09;;;;;;;55.90;27.10;;;19.50;99.90;;;;;;5114141;27;20963;-60
2023/06/30 05:23:36;;;;;;;49.27;26.63;;;19.70;99.90;;;;;;5114703;27;20492;-60
2023/06/30 05:26:03;;;;;;;66.80;29.80;;;19.80;99.90;;;;;;5115277;27;20833;-60
2023/06/30 05:28:29;;;;;;;51.33;27.90;;;19.90;99.90;;;;;;5115507;27;20909;-61
2023/06/30 05:30:56;;;;;;;80.53;34.37;;;20.00;99.90;;;;;;5115025;27;20516;-60
2023/06/30 05:33:24;;;;;;;47.93;25.73;;;20.20;99.90;;;;;;5115895;27;20483;-61
2023/06/30 05:35:52;;;;;;;53.63;26.70;;;20.30;99.90;;;;;;5116528;27;20483;-60
2023/06/30 05:38:18;;;;;;;54.40;29.03;;;20.40;99.90;;;;;;5117796;27;20486;-61
2023/06/30 05:40:46;;;;;;;68.60;29.47;;;20.50;99.90;;;;;;5118095;27;20510;-61
2023/06/30 05:43:12;;;;;;;54.37;28.50;;;20.60;99.90;;;;;;5115609;27;20481;-61
2023/06/30 05:45:40;;;;;;;46.87;26.40;;;20.70;99.90;;;;;;5115389;27;20487;-60
2023/06/30 05:48:06;;;;;;;65.93;27.83;;;20.80;99.90;;;;;;5115107;27;20472;-60
2023/06/30 05:50:35;;;;;;;51.47;25.90;;;20.90;99.90;;;;;;5116340;27;20530;-60
2023/06/30 05:53:03;;;;;;;68.07;32.27;;;20.90;99.90;;;;;;5110926;27;20478;-61
2023/06/30 05:55:29;;;;;;;53.43;27.43;;;21.00;99.90;;;;;;5115113;27;20830;-61
2023/06/30 05:57:56;;;;;;;78.33;35.07;;;21.00;99.90;;;;;;5112479;27;20486;-61
2023/06/30 06:00:24;;;;;;;46.23;26.27;;;21.10;99.90;;;;;;5115218;27;20478;-61
2023/06/30 06:02:50;;;;;;;58.53;30.47;;;21.20;99.90;;;;;;5114698;27;20483;-61
2023/06/30 06:05:17;;;;;;;56.17;28.07;;;21.50;99.90;;;;;;5115355;27;20908;-61
2023/06/30 06:07:45;;;;;;;51.87;26.27;;;21.60;99.90;;;;;;5116042;27;20491;-61
2023/06/30 06:10:12;;;;;;;53.70;26.30;;;21.90;99.90;;;;;;5111073;27;20483;-61
2023/06/30 06:12:40;;;;;;;44.13;26.67;;;21.90;99.90;;;;;;5115851;27;20872;-61
2023/06/30 06:15:07;;;;;;;48.17;27.47;;;22.00;99.90;;;;;;5113474;27;20479;-60
2023/06/30 06:17:34;;;;;;;37.57;23.27;;;22.10;99.90;;;;;;5112443;27;20480;-61
2023/06/30 06:20:02;;;;;;;60.50;29.93;;;22.20;99.90;;;;;;5113884;27;21010;-60
2023/06/30 06:22:29;;;;;;;44.13;24.83;;;22.20;99.90;;;;;;5103561;27;20958;-61
2023/06/30 06:24:57;;;;;;;48.37;26.10;;;22.30;99.70;;;;;;5095549;27;20472;-61
2023/06/30 06:27:24;;;;;;;49.30;27.10;;;22.90;99.90;;;;;;5115235;27;20811;-60
2023/06/30 06:29:51;;;;;;;59.17;29.57;;;22.40;99.90;;;;;;5113860;27;20532;-61
2023/06/30 06:32:18;;;;;;;47.13;24.23;;;22.40;99.80;;;;;;5114103;27;20971;-61
2023/06/30 06:34:45;;;;;;;43.73;24.53;;;22.40;99.10;;;;;;5114662;27;20831;-61
2023/06/30 06:37:12;;;;;;;43.57;25.70;;;22.40;99.30;;;;;;5095907;27;20455;-61
2023/06/30 06:39:39;;;;;;;46.80;24.37;;;22.50;99.10;;;;;;5120192;27;20984;-61
2023/06/30 06:42:08;;;;;;;50.20;27.07;;;22.50;99.20;;;;;;5113710;27;20484;-61
2023/06/30 06:44:35;;;;;;;37.00;23.13;;;22.50;99.40;;;;;;5119571;27;20707;-61
2023/06/30 06:47:39;;;;;;;54.63;27.00;;;22.60;99.30;;;;;;5111494;27;20487;-61
2023/06/30 06:50:06;;;;;;;49.23;24.33;;;22.70;99.30;;;;;;5116979;27;20471;-61
2023/06/30 06:52:34;;;;;;;45.80;25.63;;;22.80;99.30;;;;;;5118229;27;20483;-61
2023/06/30 06:55:02;;;;;;;57.83;30.43;;;22.80;98.90;;;;;;5117736;27;20468;-61
2023/06/30 06:57:30;;;;;;;50.23;25.43;;;22.90;99.20;;;;;;5099382;27;20525;-61
2023/06/30 06:59:59;;;;;;;63.40;31.80;;;24.10;99.50;;;;;;5108784;27;20479;-61
2023/06/30 07:02:25;;;;;;;47.20;27.40;;;22.90;99.00;;;;;;5116860;27;20710;-61
2023/06/30 07:04:52;;;;;;;58.63;29.80;;;23.00;98.70;;;;;;5118087;27;20471;-61
2023/06/30 07:07:19;;;;;;;45.23;25.97;;;22.90;99.00;;;;;;5119374;27;20480;-60
2023/06/30 07:09:46;;;;;;;49.03;28.33;;;22.80;99.40;;;;;;5119962;27;20511;-62
2023/06/30 07:12:12;;;;;;;48.07;26.10;;;22.80;99.00;;;;;;5119871;27;20482;-62
2023/06/30 07:14:41;;;;;;;46.50;25.80;;;22.80;99.20;;;;;;5120249;27;20475;-61
2023/06/30 07:17:07;;;;;;;42.73;25.73;;;22.70;99.00;;;;;;5119938;27;20999;-61
2023/06/30 07:19:34;;;;;;;41.53;24.83;;;22.60;99.50;;;;;;5105711;27;20664;-61
2023/06/30 07:22:01;;;;;;;63.00;31.33;;;22.60;99.50;;;;;;5116546;27;20475;-61
2023/06/30 07:24:28;;;;;;;51.40;29.70;;;22.60;99.40;;;;;;5119752;27;20474;-62
2023/06/30 07:26:55;;;;;;;51.73;27.50;;;22.70;99.60;;;;;;5117292;27;20475;-62
2023/06/30 07:29:22;;;;;;;51.20;27.97;;;22.60;99.50;;;;;;5119525;27;20479;-61
2023/06/30 07:31:50;;;;;;;58.40;30.07;;;22.60;99.20;;;;;;5118994;27;20490;-60
2023/06/30 07:34:19;;;;;;;49.77;27.50;;;22.70;99.30;;;;;;5092451;27;20476;-62
2023/06/30 07:36:45;;;;;;;55.33;27.73;;;22.70;99.20;;;;;;5119696;27;20491;-61
2023/06/30 07:39:12;;;;;;;51.00;27.43;;;22.70;99.00;;;;;;5117884;27;20477;-62
2023/06/30 07:41:39;;;;;;;57.63;29.40;;;22.70;99.20;;;;;;5112187;27;20550;-61
2023/06/30 07:44:06;;;;;;;61.90;30.80;;;22.80;99.20;;;;;;5112163;27;20479;-61
2023/06/30 07:46:33;;;;;;;51.30;27.80;;;22.90;98.70;;;;;;5124084;27;20569;-61
2023/06/30 07:49:02;;;;;;;52.27;28.80;;;22.90;98.60;;;;;;5116573;27;20528;-62
2023/06/30 07:51:29;;;;;;;51.70;26.43;;;23.00;99.10;;;;;;5122216;27;20467;-61
2023/06/30 07:53:56;;;;;;;73.53;33.73;;;23.00;99.10;;;;;;5123592;27;20478;-61
2023/06/30 07:56:23;;;;;;;48.20;27.50;;;23.10;98.20;;;;;;5123955;27;20475;-61
2023/06/30 07:58:50;;;;;;;59.63;30.20;;;23.10;97.90;;;;;;5123404;27;20763;-61
2023/06/30 08:01:17;;;;;;;56.33;29.07;;;23.20;97.80;;;;;;5094501;27;20471;-62
2023/06/30 08:03:44;;;;;;;52.90;28.57;;;23.20;98.00;;;;;;5127986;27;20854;-62
2023/06/30 08:06:12;;;;;;;53.83;29.20;;;23.40;98.00;;;;;;5121707;27;20767;-61
2023/06/30 08:08:39;;;;;;;51.40;26.87;;;23.40;97.80;;;;;;5125050;27;20523;-62
2023/06/30 08:11:06;;;;;;;49.03;26.37;;;23.50;97.70;;;;;;5123527;27;20493;-61
2023/06/30 08:13:32;;;;;;;50.90;28.47;;;23.50;97.50;;;;;;5126285;27;20984;-61
2023/06/30 08:15:59;;;;;;;62.53;33.13;;;23.50;97.30;;;;;;5123139;27;20475;-61
2023/06/30 08:18:27;;;;;;;55.03;28.70;;;23.60;97.30;;;;;;5125366;27;20476;-61
2023/06/30 08:20:55;;;;;;;59.23;30.93;;;23.70;97.30;;;;;;5121804;27;20460;-61
2023/06/30 08:23:24;;;;;;;53.60;27.53;;;;;;;;;;5125869;27;21280;-62
2023/06/30 08:25:53;;;;;;;58.27;30.17;;;23.90;96.60;;;;;;5124382;27;20842;-62
2023/06/30 08:28:20;;;;;;;62.80;30.70;;;24.00;97.00;;;;;;5095104;27;20467;-61
2023/06/30 08:30:47;;;;;;;44.60;26.50;;;23.90;96.70;;;;;;5124246;27;21091;-62
2023/06/30 08:33:14;;;;;;;47.13;26.93;;;23.80;96.80;;;;;;5124961;27;20478;-62
2023/06/30 08:35:40;;;;;;;44.90;27.17;;;23.80;97.00;;;;;;5122376;27;20483;-61
2023/06/30 08:38:07;;;;;;;59.40;25.50;;;23.70;96.90;;;;;;5123231;27;20479;-61
2023/06/30 08:40:36;;;;;;;51.37;28.13;;;23.60;96.70;;;;;;5126023;27;20463;-62
2023/06/30 08:43:06;;;;;;;55.43;30.00;;;23.60;97.30;;;;;;5122066;27;20963;-62
2023/06/30 08:45:33;;;;;;;66.17;27.30;;;23.60;97.00;;;;;;5122223;27;20873;-62
2023/06/30 08:48:04;;;;;;;59.93;31.47;;;23.60;97.40;;;;;;5113984;27;20478;-62
2023/06/30 08:50:33;;;;;;;61.40;30.23;;;23.70;97.70;;;;;;5121831;27;20486;-62
2023/06/30 08:53:00;;;;;;;56.53;29.80;;;23.80;96.90;;;;;;5121300;27;20464;-61
2023/06/30 08:55:27;;;;;;;56.10;31.43;;;23.80;96.90;;;;;;5120956;27;20846;-62
2023/06/30 08:57:56;;;;;;;74.07;35.73;;;23.80;97.30;;;;;;5122508;27;20578;-61
2023/06/30 09:00:24;;;;;;;53.60;27.77;;;23.70;96.40;;;;;;5123057;27;20478;-62
2023/06/30 09:02:51;;;;;;;63.83;33.63;;;23.70;96.40;;;;;;5123260;27;20671;-62
2023/06/30 09:05:19;;;;;;;48.67;28.60;;;23.70;96.40;;;;;;5124401;27;20473;-62
2023/06/30 09:07:50;;;;;;;54.60;27.07;;;23.80;97.00;;;;;;5124922;27;20476;-62
2023/06/30 09:10:18;;;;;;;67.10;32.27;;;23.90;96.80;;;;;;5126094;27;20699;-61
2023/06/30 09:12:47;;;;;;;53.03;28.73;;;23.90;96.00;;;;;;5115863;27;20481;-62
2023/06/30 09:15:18;;;;;;;55.47;29.37;;;23.90;96.30;;;;;;5121836;27;20484;-61
2023/06/30 09:17:45;;;;;;;50.33;29.77;;;23.90;96.00;;;;;;5122380;27;20528;-60
2023/06/30 09:20:13;;;;;;;61.80;31.50;;;23.90;96.10;;;;;;5122458;27;20480;-61
2023/06/30 09:22:41;;;;;;;53.27;29.60;;;23.90;96.50;;;;;;5123124;27;20475;-62
2023/06/30 09:25:28;;;;;;;49.47;27.43;;;23.20;95.80;;;;;;5130359;27;20773;-61
2023/06/30 09:27:56;;;;;;;62.27;29.87;;;24.00;96.10;;;;;;5100123;27;20507;-62
2023/06/30 09:30:32;;;;;;;45.23;24.70;;;23.90;96.00;;;;;;5130651;27;20856;-61
2023/06/30 09:32:59;;;;;;;59.10;29.20;;;24.00;96.30;;;;;;5111483;27;20482;-61
2023/06/30 09:35:26;;;;;;;48.87;26.90;;;24.10;95.90;;;;;;5079830;27;20992;-62
2023/06/30 09:37:54;;;;;;;64.70;31.53;;;24.10;96.20;;;;;;5087776;27;20562;-62
2023/06/30 09:40:25;;;;;;;49.30;26.33;;;24.30;96.40;;;;;;5127495;27;20486;-61
2023/06/30 09:42:53;;;;;;;48.33;25.13;;;24.40;96.20;;;;;;5123441;27;20474;-61
2023/06/30 09:45:20;;;;;;;45.13;23.23;;;24.40;95.10;;;;;;5113187;27;20477;-60
2023/06/30 09:47:55;;;;;;;55.73;26.43;;;24.50;94.80;;;;;;5094725;27;20555;-61
2023/06/30 09:50:24;;;;;;;52.83;25.20;;;24.40;94.70;;;;;;5125926;27;20487;-61
2023/06/30 09:52:51;;;;;;;55.37;24.87;;;24.40;94.60;;;;;;5122840;27;20863;-61
2023/06/30 09:55:18;;;;;;;43.07;21.97;;;24.40;94.90;;;;;;5123403;27;20476;-62
2023/06/30 09:57:46;;;;;;;44.30;22.53;;;24.30;95.00;;;;;;5122600;27;20483;-61
2023/06/30 10:00:14;;;;;;;37.53;18.27;;;24.30;95.10;;;;;;5118773;27;20480;-61
2023/06/30 10:02:42;;;;;;;29.40;14.97;;;24.50;95.10;;;;;;5122327;27;20475;-61
2023/06/30 10:05:11;;;;;;;35.50;16.17;;;25.40;95.10;;;;;;5119879;27;21024;-61
2023/06/30 10:07:39;;;;;;;30.50;13.47;;;24.50;94.50;;;;;;5123784;27;20791;-61
2023/06/30 10:10:10;;;;;;;25.57;13.00;;;24.50;94.40;;;;;;5118422;27;21196;-60
2023/06/30 10:12:38;;;;;;;28.87;12.83;;;24.50;94.50;;;;;;5119554;27;20479;-61
2023/06/30 10:15:09;;;;;;;39.13;14.83;;;24.40;94.50;;;;;;5114642;27;20480;-61
2023/06/30 10:17:37;;;;;;;29.70;14.13;;;24.40;94.60;;;;;;5112909;27;20472;-60
2023/06/30 10:20:08;;;;;;;29.37;14.37;;;24.40;94.90;;;;;;5109696;27;21002;-62
2023/06/30 10:22:37;;;;;;;30.47;15.53;;;24.40;94.60;;;;;;5115985;27;20476;-61
2023/06/30 10:25:09;;;;;;;39.27;16.43;;;24.40;94.50;;;;;;5114727;27;20476;-61
2023/06/30 10:27:36;;;;;;;33.03;16.43;;;24.30;94.30;;;;;;5121110;27;20476;-61
2023/06/30 10:30:04;;;;;;;38.50;17.30;;;24.30;94.40;;;;;;5121340;27;20468;-60
2023/06/30 10:32:30;;;;;;;29.00;13.50;;;24.30;94.50;;;;;;5123234;27;21090;-61
2023/06/30 10:34:58;;;;;;;39.43;16.20;;;24.40;94.80;;;;;;5123153;27;20457;-62
2023/06/30 10:37:26;;;;;;;33.53;15.27;;;24.40;94.40;;;;;;5118213;27;20475;-61
2023/06/30 10:39:54;;;;;;;54.40;19.03;;;24.10;93.80;;;;;;5119603;27;20485;-61
2023/06/30 10:42:21;;;;;;;30.70;12.77;;;24.10;94.00;;;;;;5119260;27;20486;-61
2023/06/30 10:44:48;;;;;;;24.20;11.20;;;23.90;94.00;;;;;;5114282;27;20880;-61
2023/06/30 10:47:15;;;;;;;35.00;15.20;;;;;;;;;;5112086;27;20475;-61
2023/06/30 10:49:43;;;;;;;23.80;11.77;;;23.70;94.40;;;;;;5122367;27;20475;-61
2023/06/30 10:52:11;;;;;;;28.40;11.70;;;23.60;94.50;;;;;;5122343;27;20497;-61
2023/06/30 10:54:42;;;;;;;17.43;9.80;;;23.50;94.60;;;;;;5110194;27;20479;-60
2023/06/30 10:57:14;;;;;;;26.00;11.67;;;23.50;94.50;;;;;;5122070;27;21092;-61
2023/06/30 10:59:42;;;;;;;22.70;10.77;;;23.30;94.20;;;;;;5121785;27;20479;-61
2023/06/30 11:02:23;;;;;;;27.27;11.10;;;23.20;94.50;;;;;;5122613;27;20886;-61
2023/06/30 11:04:52;;;;;;;28.67;12.57;;;23.20;94.70;;;;;;5125497;27;20546;-62
2023/06/30 11:07:23;;;;;;;21.70;9.83;;;23.30;94.60;;;;;;5123740;27;20467;-62
2023/06/30 11:10:01;;;;;;;49.87;14.87;;;23.40;94.60;;;;;;5117365;27;20848;-61
2023/06/30 11:12:50;;;;;;;37.70;13.20;;;23.60;94.90;;;;;;5119543;27;20680;-62
2023/06/30 11:15:36;;;;;;;29.80;11.23;;;23.90;94.70;;;;;;5121310;27;20471;-62
2023/06/30 11:18:05;;;;;;;40.37;15.33;;;24.50;94.60;;;;;;5096239;27;20758;-62
2023/06/30 11:20:32;;;;;;;26.43;11.10;;;24.80;94.20;;;;;;5090466;27;20520;-61
2023/06/30 11:23:01;;;;;;;44.77;17.33;;;25.50;93.40;;;;;;5122898;27;20471;-62
2023/06/30 11:25:29;;;;;;;22.40;10.13;;;25.80;93.60;;;;;;5126643;27;20725;-62
2023/06/30 11:27:59;;;;;;;48.87;17.23;;;25.90;91.90;;;;;;5124659;27;21112;-61
2023/06/30 11:30:26;;;;;;;23.33;12.20;;;26.00;91.60;;;;;;5126990;27;20953;-61
2023/06/30 11:32:58;;;;;;;46.20;19.03;;;26.20;91.90;;;;;;5124611;27;20470;-61
2023/06/30 11:35:26;;;;;;;29.40;14.13;;;26.40;92.40;;;;;;5123902;27;20956;-61
2023/06/30 11:37:54;;;;;;;43.63;18.83;;;26.70;92.10;;;;;;5127944;27;20486;-61
2023/06/30 11:40:22;;;;;;;31.57;15.43;;;27.00;91.70;;;;;;5125588;27;20927;-62
2023/06/30 11:42:49;;;;;;;39.17;17.50;;;27.10;90.10;;;;;;5122929;27;20486;-61
2023/06/30 11:45:20;;;;;;;27.93;14.00;;;27.00;88.50;;;;;;5126487;27;20596;-62
2023/06/30 11:47:50;;;;;;;36.10;15.90;;;27.00;90.30;;;;;;5125146;27;20897;-62
2023/06/30 11:50:17;;;;;;;35.47;16.33;;;26.70;88.40;;;;;;5123583;27;20479;-61
2023/06/30 11:52:44;;;;;;;26.23;13.53;;;26.60;89.20;;;;;;5126192;27;20487;-61
2023/06/30 11:55:12;;;;;;;35.13;15.97;;;26.50;90.00;;;;;;5134775;27;20463;-61
2023/06/30 11:57:40;;;;;;;26.77;12.30;;;26.10;89.30;;;;;;5129799;27;20461;-61
2023/06/30 12:00:10;;;;;;;25.63;13.90;;;25.90;89.80;;;;;;5122965;27;20944;-61
2023/06/30 12:02:38;;;;;;;23.30;13.23;;;25.80;90.20;;;;;;5122247;27;21272;-61
2023/06/30 12:05:11;;;;;;;30.60;14.83;;;25.80;90.50;;;;;;5122788;27;20836;-61
2023/06/30 12:07:39;;;;;;;26.17;13.90;;;25.90;90.60;;;;;;5111775;27;20487;-61
2023/06/30 12:10:08;;;;;;;33.17;15.70;;;25.90;89.80;;;;;;5125589;27;20475;-61
2023/06/30 12:12:35;;;;;;;25.73;12.33;;;26.00;89.50;;;;;;5063169;27;20476;-62
2023/06/30 12:15:05;;;;;;;34.70;15.60;;;26.30;90.60;;;;;;5104320;27;20460;-61
2023/06/30 12:17:36;;;;;;;29.63;14.17;;;26.40;87.80;;;;;;5123581;27;21086;-61
2023/06/30 12:20:06;;;;;;;38.40;17.00;;;26.20;86.50;;;;;;5124909;27;20487;-61
2023/06/30 12:22:36;;;;;;;28.40;13.80;;;26.30;88.50;;;;;;5123118;27;20483;-61
2023/06/30 12:25:05;;;;;;;33.93;14.73;;;26.30;88.80;;;;;;5125364;27;20481;-61
2023/06/30 12:27:33;;;;;;;55.97;22.47;;;26.20;88.90;;;;;;5119086;27;20941;-61
2023/06/30 12:30:00;;;;;;;36.77;16.00;;;26.30;89.30;;;;;;5120646;27;25349;-61
2023/06/30 12:32:28;;;;;;;23.43;10.97;;;26.20;86.90;;;;;;5110412;27;20479;-62